Ouargla, Algeria
Current Conditions -  °F | °C
As of 2:00 AM on Monday 24 Nov 2014 (Local Time) from DAUU Reporting Station
Clear Clear  
Wind Chill: 63°   Ceiling: Unl
Heat Index: 63°   Visibility: 6mi
Dew Point: 37°   Wind: 0mph
Humidity: 39%   Direction: NA
Pressure: 30.12"   Gusts: NA
Location:  31.92°N, 5.4°E
Report Text: DAUU 240100Z 00000KT CAVOK 17/03 Q1020
Loading
Personal Weather Stations






























Interactive Weather Map New forecast layout! Learn more

10-Day Weather Forecast

Advertisements
Track Severe Weather on mobile